Kang Sheng — VRXL3 — position and weather

sailwx.info

Track history (hours):
 
Tides and Currents Weather Stations Pressure Air Temp Water Temp Dewpoint Dewpoint Depression Visibility Wind Speed Wind Dir Waves Ship Positions

Kang Sheng

Last reported at 2016-Jul-07 08:30 UTC. Time now 2016-Jul-27 01:19 UTC.
Position N 11°03' W 061°34'.
Warning: this ship's position is 19 days out of date.

Length 190 m; draft 12.1 m.

Type: Cargo ship. MMSI: 477977000.

Date/timePositionNaut miles runAvg speedWind from/ knotsBaromVisibWave heightAir tempDewpointWater temp
2016-Jul-07 08:30N 11°03' W 061°34'7 7.1
2016-Jul-07 07:32N 11°06' W 061°40'12 9.0
2016-Jul-07 06:12N 11°14' W 061°50'  
2016-Jun-30 11:19N 27°41' W 082°35'7 8.6
2016-Jun-30 10:33N 27°46' W 082°31'8 8.0
2016-Jun-30 09:33N 27°53' W 082°26'2 2.3
2016-Jun-30 08:32N 27°55' W 082°25'0 0.0
2016-Jun-30 07:32N 27°55' W 082°25'0 0.0
2016-Jun-30 06:32N 27°55' W 082°25'0 0.0
2016-Jun-30 05:32N 27°55' W 082°25'0 0.0
2016-Jun-30 04:32N 27°55' W 082°25'0 0.0
2016-Jun-30 03:32N 27°55' W 082°25'0 0.0
2016-Jun-30 02:32N 27°55' W 082°25'0 0.0
2016-Jun-30 01:32N 27°55' W 082°25'0 0.0
2016-Jun-30 00:32N 27°55' W 082°25'0 0.0
2016-Jun-29 23:32N 27°55' W 082°25'0 0.0
2016-Jun-29 22:32N 27°55' W 082°25'0 0.0
2016-Jun-29 21:32N 27°55' W 082°25'0 0.0
2016-Jun-29 20:32N 27°55' W 082°25'0 0.0
2016-Jun-29 19:32N 27°55' W 082°25'0 0.0
2016-Jun-29 18:32N 27°55' W 082°25'0 0.0
2016-Jun-29 17:32N 27°55' W 082°25'0 0.0
2016-Jun-29 16:32N 27°55' W 082°25'0 0.0
2016-Jun-29 15:32N 27°55' W 082°25'0 0.0
2016-Jun-29 14:32N 27°55' W 082°25'0 0.0
2016-Jun-29 13:32N 27°55' W 082°25'0 0.0
2016-Jun-29 12:32N 27°55' W 082°25'0 0.0
2016-Jun-29 11:32N 27°55' W 082°25'0 0.0
2016-Jun-29 10:32N 27°55' W 082°25'0 0.0
2016-Jun-29 09:32N 27°55' W 082°25'0 0.0
2016-Jun-29 08:29N 27°55' W 082°25'0 0.0
2016-Jun-29 07:29N 27°55' W 082°25'0 0.0
2016-Jun-29 06:23N 27°55' W 082°25'0 0.0
2016-Jun-29 05:32N 27°55' W 082°25'0 0.0
2016-Jun-29 04:32N 27°55' W 082°25'0 0.0
2016-Jun-29 03:32N 27°55' W 082°25'0 0.0
2016-Jun-29 02:32N 27°55' W 082°25'0 0.0
2016-Jun-29 01:32N 27°55' W 082°25'0 0.0
2016-Jun-29 00:32N 27°55' W 082°25'0 0.0
2016-Jun-28 23:32N 27°55' W 082°25'0 0.0
2016-Jun-28 22:32N 27°55' W 082°25'0 0.0
2016-Jun-28 21:32N 27°55' W 082°25'0 0.0
2016-Jun-28 20:32N 27°55' W 082°25'0 0.0
2016-Jun-28 19:32N 27°55' W 082°25'0 0.0
2016-Jun-28 18:32N 27°55' W 082°25'0 0.0
2016-Jun-28 17:32N 27°55' W 082°25'0 0.0
2016-Jun-28 16:32N 27°55' W 082°25'0 0.0
2016-Jun-28 15:32N 27°55' W 082°25'0 0.0
2016-Jun-28 14:29N 27°55' W 082°25'0 0.0
2016-Jun-28 13:32N 27°55' W 082°25'0 0.0
2016-Jun-28 12:32N 27°55' W 082°25'0 0.0
2016-Jun-28 11:32N 27°55' W 082°25'0 0.0
2016-Jun-28 10:32N 27°55' W 082°25'0 0.0
2016-Jun-28 09:32N 27°55' W 082°25'0 0.0
2016-Jun-28 08:32N 27°55' W 082°25'0 0.0
2016-Jun-28 07:32N 27°55' W 082°25'0 0.0
2016-Jun-28 06:32N 27°55' W 082°25'0 0.0
2016-Jun-28 04:32N 27°55' W 082°25'0 0.0
2016-Jun-28 03:32N 27°55' W 082°25'0 0.0
2016-Jun-28 02:32N 27°55' W 082°25'0 0.0
2016-Jun-28 01:32N 27°55' W 082°25'0 0.0
2016-Jun-28 00:32N 27°55' W 082°25'0 0.0
2016-Jun-27 23:32N 27°55' W 082°25'0 0.0
2016-Jun-27 22:32N 27°55' W 082°25'0 0.0
2016-Jun-27 21:32N 27°55' W 082°25'0 0.0
2016-Jun-27 20:32N 27°55' W 082°25'0 0.0
2016-Jun-27 19:29N 27°55' W 082°25'0 0.0
2016-Jun-27 18:32N 27°55' W 082°25'0 0.0
2016-Jun-27 17:32N 27°55' W 082°25'0 0.0
2016-Jun-27 16:32N 27°55' W 082°25'0 0.0
2016-Jun-27 15:32N 27°55' W 082°25'0 0.0
2016-Jun-27 14:29N 27°55' W 082°25'0 0.0
2016-Jun-27 13:32N 27°55' W 082°25'0 0.0
2016-Jun-27 12:32N 27°55' W 082°25'  
Track history (hours):
 
Tides and Currents Weather Stations Pressure Air Temp Water Temp Dewpoint Dewpoint Depression Visibility Wind Speed Wind Dir Waves Ship Positions

Kang Sheng

Last reported at 2016-Jul-07 08:30 UTC. Time now 2016-Jul-27 01:19 UTC.
Position N 11°03' W 061°34'.
Warning: this ship's position is 19 days out of date.

Length 190 m; draft 12.1 m.

Type: Cargo ship. MMSI: 477977000.

Date/timePositionNaut miles runAvg speedWind from/ knotsBaromVisibWave heightAir tempDewpointWater temp
2016-Jul-07 08:30N 11°03' W 061°34'7 7.1
2016-Jul-07 07:32N 11°06' W 061°40'12 9.0
2016-Jul-07 06:12N 11°14' W 061°50'  
2016-Jun-30 11:19N 27°41' W 082°35'7 8.6
2016-Jun-30 10:33N 27°46' W 082°31'8 8.0
2016-Jun-30 09:33N 27°53' W 082°26'2 2.3
2016-Jun-30 08:32N 27°55' W 082°25'0 0.0
2016-Jun-30 07:32N 27°55' W 082°25'0 0.0
2016-Jun-30 06:32N 27°55' W 082°25'0 0.0
2016-Jun-30 05:32N 27°55' W 082°25'0 0.0
2016-Jun-30 04:32N 27°55' W 082°25'0 0.0
2016-Jun-30 03:32N 27°55' W 082°25'0 0.0
2016-Jun-30 02:32N 27°55' W 082°25'0 0.0
2016-Jun-30 01:32N 27°55' W 082°25'0 0.0
2016-Jun-30 00:32N 27°55' W 082°25'0 0.0
2016-Jun-29 23:32N 27°55' W 082°25'0 0.0
2016-Jun-29 22:32N 27°55' W 082°25'0 0.0
2016-Jun-29 21:32N 27°55' W 082°25'0 0.0
2016-Jun-29 20:32N 27°55' W 082°25'0 0.0
2016-Jun-29 19:32N 27°55' W 082°25'0 0.0
2016-Jun-29 18:32N 27°55' W 082°25'0 0.0
2016-Jun-29 17:32N 27°55' W 082°25'0 0.0
2016-Jun-29 16:32N 27°55' W 082°25'0 0.0
2016-Jun-29 15:32N 27°55' W 082°25'0 0.0
2016-Jun-29 14:32N 27°55' W 082°25'0 0.0
2016-Jun-29 13:32N 27°55' W 082°25'0 0.0
2016-Jun-29 12:32N 27°55' W 082°25'0 0.0
2016-Jun-29 11:32N 27°55' W 082°25'0 0.0
2016-Jun-29 10:32N 27°55' W 082°25'0 0.0
2016-Jun-29 09:32N 27°55' W 082°25'0 0.0
2016-Jun-29 08:29N 27°55' W 082°25'0 0.0
2016-Jun-29 07:29N 27°55' W 082°25'0 0.0
2016-Jun-29 06:23N 27°55' W 082°25'0 0.0
2016-Jun-29 05:32N 27°55' W 082°25'0 0.0
2016-Jun-29 04:32N 27°55' W 082°25'0 0.0
2016-Jun-29 03:32N 27°55' W 082°25'0 0.0
2016-Jun-29 02:32N 27°55' W 082°25'0 0.0
2016-Jun-29 01:32N 27°55' W 082°25'0 0.0
2016-Jun-29 00:32N 27°55' W 082°25'0 0.0
2016-Jun-28 23:32N 27°55' W 082°25'0 0.0
2016-Jun-28 22:32N 27°55' W 082°25'0 0.0
2016-Jun-28 21:32N 27°55' W 082°25'0 0.0
2016-Jun-28 20:32N 27°55' W 082°25'0 0.0
2016-Jun-28 19:32N 27°55' W 082°25'0 0.0
2016-Jun-28 18:32N 27°55' W 082°25'0 0.0
2016-Jun-28 17:32N 27°55' W 082°25'0 0.0
2016-Jun-28 16:32N 27°55' W 082°25'0 0.0
2016-Jun-28 15:32N 27°55' W 082°25'0 0.0
2016-Jun-28 14:29N 27°55' W 082°25'0 0.0
2016-Jun-28 13:32N 27°55' W 082°25'0 0.0
2016-Jun-28 12:32N 27°55' W 082°25'0 0.0
2016-Jun-28 11:32N 27°55' W 082°25'0 0.0
2016-Jun-28 10:32N 27°55' W 082°25'0 0.0
2016-Jun-28 09:32N 27°55' W 082°25'0 0.0
2016-Jun-28 08:32N 27°55' W 082°25'0 0.0
2016-Jun-28 07:32N 27°55' W 082°25'0 0.0
2016-Jun-28 06:32N 27°55' W 082°25'0 0.0
2016-Jun-28 04:32N 27°55' W 082°25'0 0.0
2016-Jun-28 03:32N 27°55' W 082°25'0 0.0
2016-Jun-28 02:32N 27°55' W 082°25'0 0.0
2016-Jun-28 01:32N 27°55' W 082°25'0 0.0
2016-Jun-28 00:32N 27°55' W 082°25'0 0.0
2016-Jun-27 23:32N 27°55' W 082°25'0 0.0
2016-Jun-27 22:32N 27°55' W 082°25'0 0.0
2016-Jun-27 21:32N 27°55' W 082°25'0 0.0
2016-Jun-27 20:32N 27°55' W 082°25'0 0.0
2016-Jun-27 19:29N 27°55' W 082°25'0 0.0
2016-Jun-27 18:32N 27°55' W 082°25'0 0.0
2016-Jun-27 17:32N 27°55' W 082°25'0 0.0
2016-Jun-27 16:32N 27°55' W 082°25'0 0.0
2016-Jun-27 15:32N 27°55' W 082°25'0 0.0
2016-Jun-27 14:29N 27°55' W 082°25'0 0.0
2016-Jun-27 13:32N 27°55' W 082°25'0 0.0
2016-Jun-27 12:32N 27°55' W 082°25'  

Dump ship's entire track history